createdAt,value
2019-03-01T00:00:39.040Z,100860.45
2019-03-01T00:01:46.862Z,100867.34
2019-03-01T00:02:49.060Z,100861.22
2019-03-01T00:03:51.280Z,100863.05
2019-03-01T00:04:53.488Z,100853.41
2019-03-01T00:05:55.787Z,100855.09
2019-03-01T00:06:58.014Z,100846.72
2019-03-01T00:08:00.459Z,100846.72
2019-03-01T00:09:02.651Z,100850.62
2019-03-01T00:10:04.872Z,100851.00
2019-03-01T00:11:07.083Z,100846.56
2019-03-01T00:12:09.383Z,100853.98
2019-03-01T00:13:11.647Z,100849.55
2019-03-01T00:14:14.157Z,100849.17
2019-03-01T00:15:16.420Z,100851.77
2019-03-01T00:16:18.626Z,100853.45
2019-03-01T00:17:21.085Z,100850.85
2019-03-01T00:18:23.425Z,100843.28
2019-03-01T00:19:25.904Z,100841.05
2019-03-01T00:20:28.111Z,100843.28
2019-03-01T00:21:30.311Z,100844.19
2019-03-01T00:22:32.510Z,100835.85
2019-03-01T00:23:34.754Z,100838.45
2019-03-01T00:24:36.958Z,100825.83
2019-03-01T00:25:39.153Z,100832.72
2019-03-01T00:26:41.362Z,100827.89
2019-03-01T00:27:43.553Z,100828.28
2019-03-01T00:28:45.809Z,100834.78
2019-03-01T00:29:48.022Z,100830.73
2019-03-01T00:30:50.235Z,100834.78
2019-03-01T00:31:52.440Z,100838.00
2019-03-01T00:32:54.651Z,100840.22
2019-03-01T00:33:56.885Z,100833.72
2019-03-01T00:34:59.111Z,100838.53
2019-03-01T00:36:01.330Z,100837.62
2019-03-01T00:37:03.607Z,100834.63
2019-03-01T00:38:05.761Z,100833.33
2019-03-01T00:39:07.966Z,100835.55
2019-03-01T00:40:10.180Z,100831.11
2019-03-01T00:41:12.391Z,100830.20
2019-03-01T00:42:14.598Z,100828.89
2019-03-01T00:43:16.795Z,100828.51
2019-03-01T00:44:19.225Z,100829.43
2019-03-01T00:45:21.439Z,100829.58
2019-03-01T00:46:23.625Z,100823.69
2019-03-01T00:47:25.839Z,100823.69
2019-03-01T00:48:28.035Z,100826.06
2019-03-01T00:49:32.992Z,100818.10
2019-03-01T00:50:35.239Z,100821.09
2019-03-01T00:51:37.451Z,100823.84
2019-03-01T00:52:39.673Z,100823.45
2019-03-01T00:53:41.882Z,100827.89
2019-03-01T00:54:44.110Z,100831.80
2019-03-01T00:55:46.328Z,100824.38
2019-03-01T00:56:48.535Z,100828.28
2019-03-01T00:57:50.745Z,100823.98
2019-03-01T00:58:52.953Z,100819.17
2019-03-01T00:59:55.195Z,100810.98
2019-03-01T01:00:57.401Z,100807.08
2019-03-01T01:01:59.608Z,100810.59
2019-03-01T01:03:01.809Z,100806.69
2019-03-01T01:04:04.080Z,100797.97
2019-03-01T01:05:06.310Z,100802.41
2019-03-01T01:06:08.515Z,100803.70
2019-03-01T01:07:10.780Z,100801.10
2019-03-01T01:08:12.925Z,100802.02
2019-03-01T01:09:15.127Z,100796.44
2019-03-01T01:10:17.359Z,100794.21
2019-03-01T01:11:21.643Z,100792.14
2019-03-01T01:12:23.866Z,100790.31
2019-03-01T01:13:26.069Z,100787.33
2019-03-01T01:14:28.283Z,100791.23
2019-03-01T01:15:30.510Z,100797.34
2019-03-01T01:16:32.723Z,100796.44
2019-03-01T01:17:34.933Z,100790.46
2019-03-01T01:18:37.132Z,100790.84
2019-03-01T01:19:39.337Z,100796.05
2019-03-01T01:20:41.690Z,100792.14
2019-03-01T01:21:43.947Z,100799.57
2019-03-01T01:22:46.093Z,100791.23
2019-03-01T01:23:48.341Z,100795.28
2019-03-01T01:24:50.548Z,100796.97
2019-03-01T01:25:52.783Z,100795.66
2019-03-01T01:26:55.001Z,100795.28
2019-03-01T01:27:57.180Z,100800.10
2019-03-01T01:28:59.381Z,100799.19
2019-03-01T01:30:01.588Z,100795.28
2019-03-01T01:31:03.830Z,100794.90
2019-03-01T01:32:06.013Z,100795.66
2019-03-01T01:33:08.208Z,100798.42
2019-03-01T01:34:10.402Z,100786.56
2019-03-01T01:35:12.606Z,100792.30
2019-03-01T01:36:14.842Z,100791.00
2019-03-01T01:37:17.066Z,100786.17
2019-03-01T01:38:19.265Z,100790.46
2019-03-01T01:39:24.096Z,100786.17
2019-03-01T01:40:26.309Z,100786.17
2019-03-01T01:41:28.540Z,100792.68
2019-03-01T01:42:30.756Z,100789.16
2019-03-01T01:43:32.958Z,100792.30
2019-03-01T01:44:35.162Z,100795.28
2019-03-01T01:45:37.368Z,100793.06
2019-03-01T01:46:39.624Z,100793.98
2019-03-01T01:47:41.826Z,100784.34
2019-03-01T01:48:44.036Z,100793.06
2019-03-01T01:49:46.239Z,100791.00
2019-03-01T01:50:48.651Z,100786.56
2019-03-01T01:51:50.918Z,100791.38
2019-03-01T01:52:53.126Z,100799.19
2019-03-01T01:53:55.328Z,100788.24
2019-03-01T01:54:57.535Z,100789.55
2019-03-01T01:55:59.739Z,100796.05
2019-03-01T01:57:01.967Z,100790.84
2019-03-01T01:58:04.174Z,100794.36
2019-03-01T01:59:06.400Z,100789.55
2019-03-01T02:00:08.620Z,100792.14
2019-03-01T02:01:10.825Z,100790.84
2019-03-01T02:02:13.042Z,100785.64
2019-03-01T02:03:15.250Z,100789.92
2019-03-01T02:04:17.456Z,100794.75
2019-03-01T02:05:19.674Z,100787.71
2019-03-01T02:06:21.881Z,100786.94
2019-03-01T02:07:24.115Z,100795.13
2019-03-01T02:08:26.320Z,100796.44
2019-03-01T02:09:28.619Z,100792.14
2019-03-01T02:10:30.822Z,100799.95
2019-03-01T02:11:33.030Z,100798.66
2019-03-01T02:12:35.260Z,100794.21
2019-03-01T02:13:38.767Z,100788.63
2019-03-01T02:14:40.976Z,100792.14
2019-03-01T02:15:43.171Z,100794.21
2019-03-01T02:16:45.367Z,100785.48
2019-03-01T02:17:47.591Z,100789.55
2019-03-01T02:18:57.508Z,100790.31
2019-03-01T02:19:53.806Z,100790.31
2019-03-01T02:20:56.002Z,100794.59
2019-03-01T02:21:58.224Z,100792.38
2019-03-01T02:23:00.479Z,100795.52
2019-03-01T02:24:02.654Z,100795.13
2019-03-01T02:25:04.876Z,100792.38
2019-03-01T02:26:07.074Z,100796.44
2019-03-01T02:27:09.280Z,100796.44
2019-03-01T02:28:11.509Z,100789.39
2019-03-01T02:29:13.711Z,100781.97
2019-03-01T02:30:15.912Z,100788.86
2019-03-01T02:31:18.123Z,100793.30
2019-03-01T02:32:20.437Z,100793.30
2019-03-01T02:33:22.694Z,100789.78
2019-03-01T02:34:24.900Z,100786.79
2019-03-01T02:35:27.100Z,100784.19
2019-03-01T02:36:29.304Z,100778.06
2019-03-01T02:37:31.508Z,100777.69
2019-03-01T02:38:33.745Z,100780.67
2019-03-01T02:39:36.076Z,100781.97
2019-03-01T02:40:38.283Z,100777.30
2019-03-01T02:41:40.502Z,100779.91
2019-03-01T02:42:42.720Z,100778.06
2019-03-01T02:43:44.923Z,100770.27
2019-03-01T02:44:47.154Z,100772.48
2019-03-01T02:45:49.350Z,100774.16
2019-03-01T02:46:51.673Z,100774.16
2019-03-01T02:47:53.879Z,100772.33
2019-03-01T02:48:56.211Z,100771.56
2019-03-01T02:49:58.425Z,100771.56
2019-03-01T02:51:00.618Z,100767.12
2019-03-01T02:52:05.314Z,100768.58
2019-03-01T02:53:07.521Z,100777.69
2019-03-01T02:54:09.734Z,100768.96
2019-03-01T02:55:11.951Z,100769.34
2019-03-01T02:56:14.141Z,100771.17
2019-03-01T02:57:16.333Z,100762.84
2019-03-01T02:58:21.308Z,100769.34
2019-03-01T02:59:23.513Z,100772.86
2019-03-01T03:00:25.729Z,100766.36
2019-03-01T03:01:27.924Z,100767.66
2019-03-01T03:02:30.131Z,100769.34
2019-03-01T03:03:33.532Z,100767.12
2019-03-01T03:04:35.729Z,100770.11
2019-03-01T03:05:53.525Z,100771.41
2019-03-01T03:07:00.608Z,100772.33
2019-03-01T03:08:04.924Z,100776.23
2019-03-01T03:09:07.311Z,100772.33
2019-03-01T03:10:09.554Z,100764.52
2019-03-01T03:11:11.743Z,100771.56
2019-03-01T03:12:13.958Z,100775.47
2019-03-01T03:13:16.161Z,100770.64
2019-03-01T03:14:18.359Z,100768.04
2019-03-01T03:15:27.781Z,100763.22
2019-03-01T03:16:29.983Z,100764.52
2019-03-01T03:17:32.183Z,100773.25
2019-03-01T03:18:34.395Z,100763.22
2019-03-01T03:19:36.589Z,100768.42
2019-03-01T03:20:38.815Z,100773.25
2019-03-01T03:21:43.983Z,100771.95
2019-03-01T03:22:46.190Z,100767.12
2019-03-01T03:23:48.399Z,100762.30
2019-03-01T03:24:50.694Z,100765.83
2019-03-01T03:25:52.929Z,100761.00
2019-03-01T03:26:55.132Z,100761.39
2019-03-01T03:27:57.334Z,100760.23
2019-03-01T03:28:59.550Z,100759.31
2019-03-01T03:30:01.745Z,100761.39
2019-03-01T03:31:04.005Z,100760.47
2019-03-01T03:32:06.206Z,100766.74
2019-03-01T03:33:08.530Z,100763.98
2019-03-01T03:34:10.862Z,100761.77
2019-03-01T03:35:13.031Z,100764.91
2019-03-01T03:36:15.234Z,100759.70
2019-03-01T03:37:17.449Z,100759.17
2019-03-01T03:38:19.656Z,100758.41
2019-03-01T03:39:21.872Z,100757.09
2019-03-01T03:40:24.108Z,100757.48
2019-03-01T03:41:26.322Z,100756.19
2019-03-01T03:42:30.478Z,100759.70
2019-03-01T03:43:32.694Z,100763.08
2019-03-01T03:44:34.896Z,100762.30
2019-03-01T03:45:37.122Z,100757.87
2019-03-01T03:46:39.332Z,100766.20
2019-03-01T03:47:41.553Z,100764.38
2019-03-01T03:48:43.753Z,100758.25
2019-03-01T03:49:45.971Z,100763.98
2019-03-01T03:50:49.735Z,100773.09
2019-03-01T03:51:52.110Z,100763.61
2019-03-01T03:52:54.301Z,100764.38
2019-03-01T03:53:56.495Z,100758.63
2019-03-01T03:54:58.706Z,100767.36
2019-03-01T03:56:00.920Z,100757.09
2019-03-01T03:57:03.149Z,100758.41
2019-03-01T03:58:05.333Z,100752.13
2019-03-01T03:59:07.527Z,100752.13
2019-03-01T04:00:12.703Z,100753.05
2019-03-01T04:01:14.947Z,100758.78
2019-03-01T04:02:17.160Z,100749.91
2019-03-01T04:03:19.518Z,100750.83
2019-03-01T04:04:21.701Z,100743.94
2019-03-01T04:05:23.915Z,100745.63
2019-03-01T04:06:26.118Z,100746.39
2019-03-01T04:07:28.375Z,100749.53
2019-03-01T04:08:30.544Z,100746.39
2019-03-01T04:09:32.744Z,100745.09
2019-03-01T04:10:34.944Z,100748.61
2019-03-01T04:11:37.268Z,100747.31
2019-03-01T04:12:39.456Z,100749.00
2019-03-01T04:13:41.658Z,100750.30
2019-03-01T04:14:43.857Z,100748.61
2019-03-01T04:15:46.056Z,100751.59
2019-03-01T04:16:48.284Z,100749.00
2019-03-01T04:17:50.492Z,100747.69
2019-03-01T04:18:52.688Z,100749.00
2019-03-01T04:19:54.891Z,100748.08
2019-03-01T04:20:57.095Z,100741.95
2019-03-01T04:21:59.329Z,100742.88
2019-03-01T04:23:01.530Z,100738.05
2019-03-01T04:24:03.723Z,100740.27
2019-03-01T04:25:05.969Z,100735.06
2019-03-01T04:26:08.198Z,100738.97
2019-03-01T04:27:10.417Z,100735.45
2019-03-01T04:28:12.615Z,100736.75
2019-03-01T04:29:14.814Z,100735.84
2019-03-01T04:30:17.011Z,100739.36
2019-03-01T04:31:19.232Z,100742.34
2019-03-01T04:32:21.475Z,100739.36
2019-03-01T04:33:23.627Z,100738.97
2019-03-01T04:34:25.836Z,100744.94
2019-03-01T04:35:28.038Z,100744.94
2019-03-01T04:36:30.263Z,100747.16
2019-03-01T04:37:32.465Z,100749.77
2019-03-01T04:38:34.675Z,100750.15
2019-03-01T04:39:38.450Z,100747.16
2019-03-01T04:40:40.669Z,100745.86
2019-03-01T04:41:42.892Z,100741.95
2019-03-01T04:42:45.092Z,100744.56
2019-03-01T04:43:47.286Z,100750.68
2019-03-01T04:44:49.490Z,100739.73
2019-03-01T04:45:51.683Z,100741.95
2019-03-01T04:46:53.896Z,100740.66
2019-03-01T04:47:56.119Z,100742.88
2019-03-01T04:48:58.453Z,100736.22
2019-03-01T04:50:00.637Z,100743.26
2019-03-01T04:51:02.869Z,100741.77
2019-03-01T04:52:05.091Z,100741.42
2019-03-01T04:53:07.287Z,100743.64
2019-03-01T04:54:09.493Z,100742.34
2019-03-01T04:55:11.702Z,100742.34
2019-03-01T04:56:13.929Z,100742.73
2019-03-01T04:57:16.166Z,100745.86
2019-03-01T04:58:18.382Z,100737.52
2019-03-01T04:59:20.593Z,100734.53
2019-03-01T05:00:22.797Z,100734.53
2019-03-01T05:01:25.046Z,100733.62
2019-03-01T05:02:30.268Z,100738.05
2019-03-01T05:03:32.467Z,100733.62
2019-03-01T05:04:34.660Z,100733.62
2019-03-01T05:05:38.948Z,100734.92
2019-03-01T05:06:41.180Z,100732.66
2019-03-01T05:07:43.556Z,100736.22
2019-03-01T05:08:45.769Z,100736.95
2019-03-01T05:09:48.067Z,100739.17
2019-03-01T05:10:50.272Z,100733.05
2019-03-01T05:11:52.482Z,100741.77
2019-03-01T05:12:54.686Z,100739.17
2019-03-01T05:13:56.903Z,100735.66
2019-03-01T05:14:59.116Z,100737.87
2019-03-01T05:16:01.363Z,100735.27
2019-03-01T05:17:03.580Z,100736.57
2019-03-01T05:18:05.799Z,100731.75
2019-03-01T05:19:07.987Z,100733.05
2019-03-01T05:20:10.197Z,100744.02
2019-03-01T05:21:12.428Z,100740.12
2019-03-01T05:22:14.634Z,100736.22
2019-03-01T05:23:16.839Z,100730.06
2019-03-01T05:24:19.028Z,100735.66
2019-03-01T05:25:24.341Z,100734.73
2019-03-01T05:26:26.593Z,100737.87
2019-03-01T05:27:29.798Z,100732.13
2019-03-01T05:28:31.976Z,100738.64
2019-03-01T05:29:34.175Z,100731.36
2019-03-01T05:30:36.366Z,100734.92
2019-03-01T05:31:38.607Z,100739.17
2019-03-01T05:32:40.817Z,100734.92
2019-03-01T05:33:43.019Z,100737.34
2019-03-01T05:34:48.551Z,100733.97
2019-03-01T05:35:50.760Z,100739.17
2019-03-01T05:36:52.985Z,100739.55
2019-03-01T05:37:55.191Z,100740.33
2019-03-01T05:38:57.399Z,100740.47
2019-03-01T05:39:59.618Z,100740.86
2019-03-01T05:41:01.834Z,100739.55
2019-03-01T05:42:04.051Z,100736.95
2019-03-01T05:43:06.262Z,100737.87
2019-03-01T05:44:09.592Z,100741.23
2019-03-01T05:45:11.794Z,100739.55
2019-03-01T05:46:14.000Z,100738.25
2019-03-01T05:47:16.321Z,100747.36
2019-03-01T05:48:18.525Z,100744.76
2019-03-01T05:49:20.873Z,100743.45
2019-03-01T05:50:23.067Z,100747.36
2019-03-01T05:51:25.281Z,100742.16
2019-03-01T05:52:27.520Z,100748.28
2019-03-01T05:53:29.727Z,100743.45
2019-03-01T05:54:31.935Z,100749.96
2019-03-01T05:55:34.141Z,100746.44
2019-03-01T05:56:36.341Z,100741.23
2019-03-01T05:57:38.626Z,100745.67
2019-03-01T05:58:40.767Z,100743.84
2019-03-01T05:59:42.978Z,100744.76
2019-03-01T06:00:45.178Z,100744.76
2019-03-01T06:01:47.379Z,100742.16
2019-03-01T06:02:49.605Z,100733.44
2019-03-01T06:03:51.824Z,100736.57
2019-03-01T06:04:54.027Z,100739.55
2019-03-01T06:05:56.249Z,100737.87
2019-03-01T06:06:58.460Z,100738.83
2019-03-01T06:08:00.696Z,100737.87
2019-03-01T06:09:04.061Z,100737.52
2019-03-01T06:10:06.258Z,100733.23
2019-03-01T06:11:08.452Z,100738.44
2019-03-01T06:12:10.655Z,100740.66
2019-03-01T06:13:13.087Z,100740.66
2019-03-01T06:14:15.294Z,100740.66
2019-03-01T06:15:18.520Z,100737.28
2019-03-01T06:16:20.727Z,100739.89
2019-03-01T06:17:23.043Z,100735.22
2019-03-01T06:18:25.451Z,100740.80
2019-03-01T06:19:27.909Z,100742.64
2019-03-01T06:20:30.116Z,100740.57
2019-03-01T06:21:32.590Z,100741.34
2019-03-01T06:22:35.862Z,100741.72
2019-03-01T06:23:38.075Z,100742.64
2019-03-01T06:24:40.283Z,100741.72
2019-03-01T06:25:42.509Z,100743.02
2019-03-01T06:26:45.033Z,100739.27
2019-03-01T06:27:47.365Z,100738.35
2019-03-01T06:28:49.725Z,100736.13
2019-03-01T06:29:51.921Z,100737.82
2019-03-01T06:30:55.424Z,100733.15
2019-03-01T06:31:57.639Z,100730.02
2019-03-01T06:32:59.972Z,100737.05
2019-03-01T06:34:02.367Z,100730.40
2019-03-01T06:35:04.559Z,100730.02
2019-03-01T06:36:06.783Z,100730.93
2019-03-01T06:37:09.007Z,100733.91
2019-03-01T06:38:12.785Z,100736.90
2019-03-01T06:39:37.043Z,100739.89
2019-03-01T06:40:47.395Z,100736.37
2019-03-01T06:41:49.659Z,100741.58
2019-03-01T06:42:51.827Z,100740.27
2019-03-01T06:43:54.030Z,100737.14
2019-03-01T06:44:56.355Z,100735.45
2019-03-01T06:45:58.567Z,100737.52
2019-03-01T06:46:59.818Z,100739.36
2019-03-01T06:48:02.021Z,100740.47
2019-03-01T06:49:19.321Z,100745.67
2019-03-01T06:50:28.977Z,100750.88
2019-03-01T06:51:33.675Z,100751.65
2019-03-01T06:52:35.895Z,100752.18
2019-03-01T06:53:38.118Z,100748.13
2019-03-01T06:54:40.310Z,100751.27
2019-03-01T06:55:42.534Z,100750.73
2019-03-01T06:56:47.206Z,100747.21
2019-03-01T06:57:49.493Z,100752.03
2019-03-01T06:58:51.725Z,100748.89
2019-03-01T06:59:53.950Z,100746.83
2019-03-01T07:01:14.372Z,100744.61
2019-03-01T07:02:20.834Z,100747.06
2019-03-01T07:03:23.074Z,100747.98
2019-03-01T07:04:25.373Z,100744.99
2019-03-01T07:05:27.590Z,100745.77
2019-03-01T07:06:29.814Z,100744.46
2019-03-01T07:07:32.089Z,100741.86
2019-03-01T07:08:36.773Z,100749.66
2019-03-01T07:09:38.986Z,100748.36
2019-03-01T07:10:41.311Z,100757.09
2019-03-01T07:11:43.533Z,100753.03
2019-03-01T07:12:45.742Z,100756.17
2019-03-01T07:13:47.958Z,100756.17
2019-03-01T07:14:50.159Z,100755.25
2019-03-01T07:15:52.371Z,100759.16
2019-03-01T07:16:54.615Z,100760.45
2019-03-01T07:17:56.806Z,100761.75
2019-03-01T07:18:59.017Z,100764.36
2019-03-01T07:20:01.227Z,100769.94
2019-03-01T07:21:03.448Z,100763.06
2019-03-01T07:22:05.682Z,100762.52
2019-03-01T07:23:07.883Z,100770.33
2019-03-01T07:24:10.116Z,100769.56
2019-03-01T07:25:12.302Z,100767.73
2019-03-01T07:26:14.501Z,100770.71
2019-03-01T07:27:16.746Z,100764.59
2019-03-01T07:28:18.947Z,100770.71
2019-03-01T07:29:21.154Z,100769.41
2019-03-01T07:30:23.364Z,100767.58
2019-03-01T07:31:25.568Z,100775.38
2019-03-01T07:32:27.809Z,100775.38
2019-03-01T07:33:30.002Z,100773.16
2019-03-01T07:34:32.223Z,100775.77
2019-03-01T07:35:34.425Z,100775.77
2019-03-01T07:36:36.806Z,100778.75
2019-03-01T07:37:39.064Z,100780.05
2019-03-01T07:38:41.434Z,100780.05
2019-03-01T07:39:43.637Z,100774.46
2019-03-01T07:40:45.849Z,100781.35
2019-03-01T07:41:49.572Z,100780.44
2019-03-01T07:42:54.195Z,100783.04
2019-03-01T07:43:56.422Z,100784.34
2019-03-01T07:45:00.104Z,100786.94
2019-03-01T07:46:02.469Z,100785.25
2019-03-01T07:47:04.672Z,100786.02
2019-03-01T07:48:06.900Z,100787.86
2019-03-01T07:49:09.113Z,100789.92
2019-03-01T07:50:11.328Z,100792.14
2019-03-01T07:51:13.563Z,100793.98
2019-03-01T07:52:15.776Z,100790.84
2019-03-01T07:53:18.010Z,100793.98
2019-03-01T07:54:22.228Z,100794.75
2019-03-01T07:55:24.968Z,100791.23
2019-03-01T07:56:27.991Z,100795.66
2019-03-01T07:57:31.588Z,100791.76
2019-03-01T07:58:34.056Z,100795.66
2019-03-01T07:59:38.070Z,100793.06
2019-03-01T08:00:40.140Z,100791.38
2019-03-01T08:01:42.456Z,100788.77
2019-03-01T08:02:45.735Z,100790.08
2019-03-01T08:03:52.289Z,100790.61
2019-03-01T08:04:52.063Z,100789.84
2019-03-01T08:05:54.275Z,100787.62
2019-03-01T08:06:56.469Z,100792.44
2019-03-01T08:08:02.620Z,100792.06
2019-03-01T08:09:06.183Z,100797.41
2019-03-01T08:10:08.390Z,100792.06
2019-03-01T08:11:10.595Z,100795.96
2019-03-01T08:12:12.818Z,100800.63
2019-03-01T08:13:17.711Z,100797.27
2019-03-01T08:14:20.021Z,100798.95
2019-03-01T08:15:22.236Z,100806.75
2019-03-01T08:16:25.204Z,100801.17
2019-03-01T08:17:31.630Z,100798.03
2019-03-01T08:18:31.536Z,100804.00
2019-03-01T08:19:33.728Z,100802.55
2019-03-01T08:20:38.752Z,100803.47
2019-03-01T08:21:42.674Z,100803.08
2019-03-01T08:22:48.755Z,100800.71
2019-03-01T08:23:50.517Z,100800.33
2019-03-01T08:24:52.576Z,100798.11
2019-03-01T08:25:55.636Z,100804.23
2019-03-01T08:26:58.779Z,100802.55
2019-03-01T08:28:00.983Z,100801.09
2019-03-01T08:29:05.572Z,100802.40
2019-03-01T08:30:10.339Z,100806.69
2019-03-01T08:31:11.753Z,100800.56
2019-03-01T08:32:13.971Z,100805.15
2019-03-01T08:33:16.171Z,100799.41
2019-03-01T08:34:19.821Z,100803.70
2019-03-01T08:35:25.372Z,100808.67
2019-03-01T08:36:25.899Z,100801.25
2019-03-01T08:37:28.328Z,100796.42
2019-03-01T08:38:30.535Z,100809.59
2019-03-01T08:39:32.773Z,100808.28
2019-03-01T08:40:35.987Z,100806.98
2019-03-01T08:41:40.248Z,100805.15
2019-03-01T08:42:42.487Z,100805.30
2019-03-01T08:43:47.845Z,100808.82
2019-03-01T08:44:48.711Z,100805.69
2019-03-01T08:45:50.925Z,100802.70
2019-03-01T08:46:53.117Z,100806.98
2019-03-01T08:47:58.408Z,100807.91
2019-03-01T08:48:59.184Z,100806.98
2019-03-01T08:50:01.544Z,100817.78
2019-03-01T08:51:03.765Z,100813.88
2019-03-01T08:52:05.993Z,100806.60
2019-03-01T08:53:11.479Z,100810.36
2019-03-01T08:54:12.045Z,100811.27
2019-03-01T08:55:14.309Z,100807.75
2019-03-01T08:56:16.525Z,100811.66
2019-03-01T08:57:18.755Z,100815.70
2019-03-01T08:58:21.235Z,100812.57
2019-03-01T08:59:23.448Z,100812.95
2019-03-01T09:00:26.871Z,100809.97
2019-03-01T09:01:31.605Z,100816.48
2019-03-01T09:02:33.454Z,100817.39
2019-03-01T09:03:35.612Z,100814.02
2019-03-01T09:04:40.534Z,100809.59
2019-03-01T09:05:44.382Z,100811.80
2019-03-01T09:06:46.779Z,100818.08
2019-03-01T09:07:48.993Z,100814.94
2019-03-01T09:08:51.232Z,100811.04
2019-03-01T09:09:53.769Z,100816.39
2019-03-01T09:10:57.333Z,100816.55
2019-03-01T09:11:59.542Z,100812.87
2019-03-01T09:13:01.766Z,100816.02
2019-03-01T09:14:03.968Z,100813.41
2019-03-01T09:15:07.342Z,100814.56
2019-03-01T09:16:10.124Z,100812.34
2019-03-01T09:17:12.383Z,100813.80
2019-03-01T09:18:15.478Z,100810.42
2019-03-01T09:19:22.316Z,100816.16
2019-03-01T09:20:23.338Z,100818.23
2019-03-01T09:21:25.571Z,100814.17
2019-03-01T09:22:27.992Z,100811.58
2019-03-01T09:23:31.033Z,100815.48
2019-03-01T09:24:33.253Z,100817.31
2019-03-01T09:25:35.474Z,100819.00
2019-03-01T09:26:37.695Z,100815.86
2019-03-01T09:27:40.042Z,100825.34
2019-03-01T09:28:42.235Z,100819.77
2019-03-01T09:29:44.449Z,100817.16
2019-03-01T09:30:46.838Z,100819.38
2019-03-01T09:31:50.722Z,100824.20
2019-03-01T09:32:53.070Z,100824.97
2019-03-01T09:33:58.534Z,100820.53
2019-03-01T09:35:31.894Z,100830.55
2019-03-01T09:36:37.965Z,100835.22
2019-03-01T09:37:42.916Z,100838.36
2019-03-01T09:38:45.106Z,100839.66
2019-03-01T09:39:50.313Z,100835.22
2019-03-01T09:40:51.211Z,100833.53
2019-03-01T09:42:02.705Z,100830.17
2019-03-01T09:43:01.024Z,100833.69
2019-03-01T09:44:03.821Z,100834.99
2019-03-01T09:45:06.083Z,100840.19
2019-03-01T09:46:10.613Z,100838.89
2019-03-01T09:47:12.833Z,100838.89
2019-03-01T09:48:15.065Z,100839.42
2019-03-01T09:49:17.283Z,100837.36
2019-03-01T09:50:19.500Z,100853.51
2019-03-01T09:51:21.907Z,100852.59
2019-03-01T09:52:24.504Z,100856.72
2019-03-01T09:53:26.819Z,100853.73
2019-03-01T09:54:29.028Z,100855.95
2019-03-01T09:55:31.252Z,100855.42
2019-03-01T09:56:34.849Z,100855.27
2019-03-01T09:57:36.997Z,100860.63
2019-03-01T09:58:39.248Z,100861.55
2019-03-01T09:59:41.451Z,100863.77
2019-03-01T10:00:43.660Z,100869.34
2019-03-01T10:01:45.904Z,100863.77
2019-03-01T10:02:48.111Z,100871.57
2019-03-01T10:03:50.336Z,100863.00
2019-03-01T10:04:52.532Z,100865.98
2019-03-01T10:05:54.745Z,100860.78
2019-03-01T10:06:56.985Z,100868.58
2019-03-01T10:07:59.237Z,100863.91
2019-03-01T10:09:01.499Z,100864.83
2019-03-01T10:10:03.724Z,100866.14
2019-03-01T10:11:05.930Z,100864.45
2019-03-01T10:12:08.179Z,100867.97
2019-03-01T10:13:10.390Z,100867.44
2019-03-01T10:14:12.758Z,100869.12
2019-03-01T10:15:14.960Z,100872.64
2019-03-01T10:16:17.161Z,100869.66
2019-03-01T10:17:19.402Z,100874.13
2019-03-01T10:18:21.771Z,100870.95
2019-03-01T10:19:24.004Z,100869.27
2019-03-01T10:20:26.231Z,100874.13
2019-03-01T10:21:28.429Z,100874.13
2019-03-01T10:22:30.663Z,100876.54
2019-03-01T10:23:32.882Z,100876.54
2019-03-01T10:24:35.219Z,100878.77
2019-03-01T10:25:37.494Z,100888.78
2019-03-01T10:26:39.670Z,100884.73
2019-03-01T10:27:44.691Z,100881.36
2019-03-01T10:28:46.920Z,100876.16
2019-03-01T10:29:49.122Z,100887.67
2019-03-01T10:30:52.726Z,100881.55
2019-03-01T10:31:54.859Z,100880.98
2019-03-01T10:32:57.099Z,100880.98
2019-03-01T10:33:59.312Z,100885.45
2019-03-01T10:35:01.515Z,100885.07
2019-03-01T10:36:03.724Z,100885.07
2019-03-01T10:37:05.967Z,100883.77
2019-03-01T10:38:08.322Z,100883.23
2019-03-01T10:39:13.239Z,100886.76
2019-03-01T10:40:15.450Z,100887.14
2019-03-01T10:41:17.688Z,100890.66
2019-03-01T10:42:21.842Z,100891.95
2019-03-01T10:43:23.804Z,100892.49
2019-03-01T10:44:26.032Z,100893.03
2019-03-01T10:45:28.254Z,100899.00
2019-03-01T10:46:30.475Z,100896.02
2019-03-01T10:47:32.697Z,100893.03
2019-03-01T10:48:36.128Z,100895.63
2019-03-01T10:49:38.335Z,100902.52
2019-03-01T10:50:40.641Z,100903.28
2019-03-01T10:51:42.848Z,100902.14
2019-03-01T10:52:45.068Z,100895.63
2019-03-01T10:53:49.684Z,100896.94
2019-03-01T10:54:51.878Z,100896.02
2019-03-01T10:55:54.105Z,100899.00
2019-03-01T10:56:58.366Z,100897.55
2019-03-01T10:58:00.627Z,100898.27
2019-03-01T10:59:05.732Z,100895.52
2019-03-01T11:00:07.999Z,100897.36
2019-03-01T11:01:10.218Z,100899.38
2019-03-01T11:02:12.423Z,100899.38
2019-03-01T11:03:14.632Z,100901.22
2019-03-01T11:04:19.612Z,100898.23
2019-03-01T11:05:21.818Z,100894.87
2019-03-01T11:06:24.039Z,100894.64
2019-03-01T11:07:26.260Z,100893.34
2019-03-01T11:08:28.515Z,100892.95
2019-03-01T11:09:30.787Z,100887.21
2019-03-01T11:10:33.095Z,100895.02
2019-03-01T11:11:35.324Z,100901.91
2019-03-01T11:12:37.550Z,100893.56
2019-03-01T11:13:41.800Z,100896.94
2019-03-01T11:14:44.088Z,100897.85
2019-03-01T11:15:51.813Z,100899.92
2019-03-01T11:16:55.814Z,100907.87
2019-03-01T11:17:58.031Z,100903.05
2019-03-01T11:19:00.231Z,100909.33
2019-03-01T11:20:02.937Z,100901.91
2019-03-01T11:21:05.131Z,100905.43
2019-03-01T11:22:10.334Z,100896.86
2019-03-01T11:23:12.550Z,100901.67
2019-03-01T11:24:20.130Z,100889.44
2019-03-01T11:25:22.383Z,100895.17
2019-03-01T11:26:24.610Z,100898.31
2019-03-01T11:27:26.835Z,100899.23
2019-03-01T11:28:29.040Z,100901.98
2019-03-01T11:29:31.238Z,100897.01
2019-03-01T11:30:33.489Z,100893.88
2019-03-01T11:31:35.708Z,100893.72
2019-03-01T11:32:37.923Z,100893.48
2019-03-01T11:33:40.173Z,100894.64
2019-03-01T11:34:42.379Z,100896.55
2019-03-01T11:35:44.600Z,100895.09
2019-03-01T11:36:46.872Z,100903.82
2019-03-01T11:37:50.543Z,100901.06
2019-03-01T11:38:53.757Z,100901.06
2019-03-01T11:39:55.967Z,100899.20
2019-03-01T11:40:58.251Z,100904.25
2019-03-01T11:42:00.563Z,100902.94
2019-03-01T11:43:02.761Z,100903.86
2019-03-01T11:44:04.978Z,100904.63
2019-03-01T11:45:07.211Z,100903.48
2019-03-01T11:46:09.435Z,100905.36
2019-03-01T11:47:11.651Z,100905.28
2019-03-01T11:48:13.883Z,100909.72
2019-03-01T11:49:16.100Z,100912.85
2019-03-01T11:50:18.619Z,100909.72
2019-03-01T11:51:22.852Z,100915.30
2019-03-01T11:52:24.734Z,100914.23
2019-03-01T11:53:26.963Z,100912.01
2019-03-01T11:54:29.163Z,100916.83
2019-03-01T11:55:31.385Z,100918.13